sensor_id;sensor_type;location;lat;lon;timestamp;pressure;altitude;pressure_sealevel;temperature;humidity
6134;BME280;3098;42.678;23.364;2023-06-14T00:00:42;94699.28;;;16.66;100.00
6134;BME280;3098;42.678;23.364;2023-06-14T00:03:10;94694.16;;;16.77;100.00
6134;BME280;3098;42.678;23.364;2023-06-14T00:05:37;94670.53;;;16.63;100.00
6134;BME280;3098;42.678;23.364;2023-06-14T00:08:09;94692.97;;;16.74;100.00
6134;BME280;3098;42.678;23.364;2023-06-14T00:10:36;94685.31;;;16.57;100.00
6134;BME280;3098;42.678;23.364;2023-06-14T00:13:05;94693.84;;;16.47;100.00
6134;BME280;3098;42.678;23.364;2023-06-14T00:15:33;94684.25;;;16.61;100.00
6134;BME280;3098;42.678;23.364;2023-06-14T00:18:00;94663.72;;;16.50;100.00
6134;BME280;3098;42.678;23.364;2023-06-14T00:20:27;94684.34;;;16.65;100.00
6134;BME280;3098;42.678;23.364;2023-06-14T00:22:54;94677.84;;;16.66;100.00
6134;BME280;3098;42.678;23.364;2023-06-14T00:25:22;94655.25;;;16.48;100.00
6134;BME280;3098;42.678;23.364;2023-06-14T00:27:49;94667.38;;;16.42;100.00
6134;BME280;3098;42.678;23.364;2023-06-14T00:30:17;94680.66;;;16.54;100.00
6134;BME280;3098;42.678;23.364;2023-06-14T00:32:44;94675.91;;;16.63;100.00
6134;BME280;3098;42.678;23.364;2023-06-14T00:35:11;94671.84;;;16.53;100.00
6134;BME280;3098;42.678;23.364;2023-06-14T00:37:39;94670.97;;;16.49;100.00
6134;BME280;3098;42.678;23.364;2023-06-14T00:40:07;94657.91;;;16.63;100.00
6134;BME280;3098;42.678;23.364;2023-06-14T00:42:34;94677.72;;;16.78;100.00
6134;BME280;3098;42.678;23.364;2023-06-14T00:45:00;94668.22;;;16.81;100.00
6134;BME280;3098;42.678;23.364;2023-06-14T00:47:28;94656.09;;;16.67;100.00
6134;BME280;3098;42.678;23.364;2023-06-14T00:49:56;94619.59;;;16.44;100.00
6134;BME280;3098;42.678;23.364;2023-06-14T00:52:23;94651.88;;;16.51;100.00
6134;BME280;3098;42.678;23.364;2023-06-14T00:54:50;94659.56;;;16.52;100.00
6134;BME280;3098;42.678;23.364;2023-06-14T00:57:17;94645.59;;;16.43;100.00
6134;BME280;3098;42.678;23.364;2023-06-14T00:59:47;94649.41;;;16.42;100.00
6134;BME280;3098;42.678;23.364;2023-06-14T01:02:15;94663.06;;;16.37;100.00
6134;BME280;3098;42.678;23.364;2023-06-14T01:04:46;94653.69;;;16.47;100.00
6134;BME280;3098;42.678;23.364;2023-06-14T01:07:21;94651.72;;;16.59;100.00
6134;BME280;3098;42.678;23.364;2023-06-14T01:10:02;94661.28;;;16.60;100.00
6134;BME280;3098;42.678;23.364;2023-06-14T01:12:44;94659.88;;;16.66;100.00
6134;BME280;3098;42.678;23.364;2023-06-14T01:15:15;94630.19;;;16.37;100.00
6134;BME280;3098;42.678;23.364;2023-06-14T01:17:44;94654.97;;;16.69;100.00
6134;BME280;3098;42.678;23.364;2023-06-14T01:20:13;94655.81;;;16.73;100.00
6134;BME280;3098;42.678;23.364;2023-06-14T01:22:51;94641.59;;;16.69;100.00
6134;BME280;3098;42.678;23.364;2023-06-14T01:25:19;94619.41;;;16.52;100.00
6134;BME280;3098;42.678;23.364;2023-06-14T01:27:48;94647.19;;;16.63;100.00
6134;BME280;3098;42.678;23.364;2023-06-14T01:30:17;94655.50;;;16.58;100.00
6134;BME280;3098;42.678;23.364;2023-06-14T01:32:44;94653.94;;;16.57;100.00
6134;BME280;3098;42.678;23.364;2023-06-14T01:35:12;94649.22;;;16.51;100.00
6134;BME280;3098;42.678;23.364;2023-06-14T01:37:39;94639.03;;;16.41;100.00
6134;BME280;3098;42.678;23.364;2023-06-14T01:40:09;94657.78;;;16.56;100.00
6134;BME280;3098;42.678;23.364;2023-06-14T01:42:38;94626.03;;;16.39;100.00
6134;BME280;3098;42.678;23.364;2023-06-14T01:45:07;94646.66;;;16.39;100.00
6134;BME280;3098;42.678;23.364;2023-06-14T01:47:35;94647.25;;;16.32;100.00
6134;BME280;3098;42.678;23.364;2023-06-14T01:50:03;94648.34;;;16.47;100.00
6134;BME280;3098;42.678;23.364;2023-06-14T01:52:30;94612.56;;;16.36;100.00
6134;BME280;3098;42.678;23.364;2023-06-14T01:54:57;94651.16;;;16.70;100.00
6134;BME280;3098;42.678;23.364;2023-06-14T01:57:28;94434.66;;;15.37;100.00
6134;BME280;3098;42.678;23.364;2023-06-14T01:59:55;94633.81;;;16.63;100.00
6134;BME280;3098;42.678;23.364;2023-06-14T02:02:22;94623.22;;;16.51;100.00
6134;BME280;3098;42.678;23.364;2023-06-14T02:04:49;94621.59;;;16.47;100.00
6134;BME280;3098;42.678;23.364;2023-06-14T02:07:16;94664.63;;;16.73;100.00
6134;BME280;3098;42.678;23.364;2023-06-14T02:09:43;94663.47;;;16.55;100.00
6134;BME280;3098;42.678;23.364;2023-06-14T02:12:10;94667.94;;;16.51;100.00
6134;BME280;3098;42.678;23.364;2023-06-14T02:14:38;94674.09;;;16.51;100.00
6134;BME280;3098;42.678;23.364;2023-06-14T02:17:06;94656.03;;;16.48;100.00
6134;BME280;3098;42.678;23.364;2023-06-14T02:19:33;94663.78;;;16.34;100.00
6134;BME280;3098;42.678;23.364;2023-06-14T02:22:00;94677.00;;;16.46;100.00
6134;BME280;3098;42.678;23.364;2023-06-14T02:24:27;94677.38;;;16.45;100.00
6134;BME280;3098;42.678;23.364;2023-06-14T02:26:54;94680.66;;;16.38;100.00
6134;BME280;3098;42.678;23.364;2023-06-14T02:29:21;94658.22;;;15.92;100.00
6134;BME280;3098;42.678;23.364;2023-06-14T02:31:49;94689.63;;;15.95;100.00
6134;BME280;3098;42.678;23.364;2023-06-14T02:34:16;94681.25;;;15.97;100.00
6134;BME280;3098;42.678;23.364;2023-06-14T02:36:43;94693.75;;;16.08;100.00
6134;BME280;3098;42.678;23.364;2023-06-14T02:39:10;94685.41;;;15.94;100.00
6134;BME280;3098;42.678;23.364;2023-06-14T02:41:38;94666.06;;;15.85;100.00
6134;BME280;3098;42.678;23.364;2023-06-14T02:44:05;94689.00;;;16.02;100.00
6134;BME280;3098;42.678;23.364;2023-06-14T02:46:32;94689.00;;;16.02;100.00
6134;BME280;3098;42.678;23.364;2023-06-14T02:49:01;94670.66;;;15.69;100.00
6134;BME280;3098;42.678;23.364;2023-06-14T02:51:28;94679.88;;;15.72;100.00
6134;BME280;3098;42.678;23.364;2023-06-14T02:53:55;94645.47;;;15.70;100.00
6134;BME280;3098;42.678;23.364;2023-06-14T02:56:22;94698.94;;;16.01;100.00
6134;BME280;3098;42.678;23.364;2023-06-14T02:58:49;94702.72;;;16.16;100.00
6134;BME280;3098;42.678;23.364;2023-06-14T03:01:16;94684.63;;;15.94;100.00
6134;BME280;3098;42.678;23.364;2023-06-14T03:03:43;94681.06;;;16.05;100.00
6134;BME280;3098;42.678;23.364;2023-06-14T03:06:11;94708.25;;;16.23;100.00
6134;BME280;3098;42.678;23.364;2023-06-14T03:08:39;94709.38;;;16.22;100.00
6134;BME280;3098;42.678;23.364;2023-06-14T03:11:07;94689.53;;;16.07;100.00
6134;BME280;3098;42.678;23.364;2023-06-14T03:13:34;94686.25;;;15.98;100.00
6134;BME280;3098;42.678;23.364;2023-06-14T03:16:01;94713.34;;;16.13;100.00
6134;BME280;3098;42.678;23.364;2023-06-14T03:18:29;94704.28;;;16.01;100.00
6134;BME280;3098;42.678;23.364;2023-06-14T03:20:56;94692.66;;;15.94;100.00
6134;BME280;3098;42.678;23.364;2023-06-14T03:23:25;94717.72;;;16.21;100.00
6134;BME280;3098;42.678;23.364;2023-06-14T03:25:52;94708.63;;;16.06;100.00
6134;BME280;3098;42.678;23.364;2023-06-14T03:28:19;94719.41;;;15.94;100.00
6134;BME280;3098;42.678;23.364;2023-06-14T03:30:46;94701.44;;;15.94;100.00
6134;BME280;3098;42.678;23.364;2023-06-14T03:33:13;94692.97;;;15.92;100.00
6134;BME280;3098;42.678;23.364;2023-06-14T03:35:41;94716.19;;;16.20;100.00
6134;BME280;3098;42.678;23.364;2023-06-14T03:38:08;94715.50;;;16.23;100.00
6134;BME280;3098;42.678;23.364;2023-06-14T03:40:36;94720.06;;;16.22;100.00
6134;BME280;3098;42.678;23.364;2023-06-14T03:43:03;94711.63;;;16.20;100.00
6134;BME280;3098;42.678;23.364;2023-06-14T03:45:30;94721.78;;;16.30;100.00
6134;BME280;3098;42.678;23.364;2023-06-14T03:47:57;94722.66;;;16.34;100.00
6134;BME280;3098;42.678;23.364;2023-06-14T03:50:25;94700.03;;;16.32;100.00
6134;BME280;3098;42.678;23.364;2023-06-14T03:52:52;94706.22;;;16.36;100.00
6134;BME280;3098;42.678;23.364;2023-06-14T03:55:19;94719.34;;;16.56;100.00
6134;BME280;3098;42.678;23.364;2023-06-14T03:57:47;94701.38;;;16.57;100.00
6134;BME280;3098;42.678;23.364;2023-06-14T04:00:15;94707.94;;;16.59;100.00
6134;BME280;3098;42.678;23.364;2023-06-14T04:02:42;94713.88;;;16.69;100.00
6134;BME280;3098;42.678;23.364;2023-06-14T04:05:09;94696.63;;;16.50;100.00
6134;BME280;3098;42.678;23.364;2023-06-14T04:07:36;94714.84;;;16.60;100.00
6134;BME280;3098;42.678;23.364;2023-06-14T04:10:06;94706.47;;;16.62;100.00
6134;BME280;3098;42.678;23.364;2023-06-14T04:12:34;94687.34;;;16.63;100.00
6134;BME280;3098;42.678;23.364;2023-06-14T04:15:03;94653.81;;;16.89;100.00
6134;BME280;3098;42.678;23.364;2023-06-14T04:17:31;94694.19;;;17.79;100.00
6134;BME280;3098;42.678;23.364;2023-06-14T04:19:59;94697.03;;;17.87;100.00
6134;BME280;3098;42.678;23.364;2023-06-14T04:22:26;94688.91;;;17.60;100.00
6134;BME280;3098;42.678;23.364;2023-06-14T04:24:54;94686.03;;;17.31;100.00
6134;BME280;3098;42.678;23.364;2023-06-14T04:27:22;94698.22;;;17.47;100.00
6134;BME280;3098;42.678;23.364;2023-06-14T04:29:51;94695.91;;;17.88;100.00
6134;BME280;3098;42.678;23.364;2023-06-14T04:32:25;94695.84;;;18.33;100.00
6134;BME280;3098;42.678;23.364;2023-06-14T04:34:56;94688.66;;;19.60;100.00
6134;BME280;3098;42.678;23.364;2023-06-14T04:37:24;94681.78;;;20.09;100.00
6134;BME280;3098;42.678;23.364;2023-06-14T04:39:54;94682.53;;;20.06;100.00
6134;BME280;3098;42.678;23.364;2023-06-14T04:42:21;94677.81;;;20.44;100.00
6134;BME280;3098;42.678;23.364;2023-06-14T04:44:50;94671.00;;;20.57;100.00
6134;BME280;3098;42.678;23.364;2023-06-14T04:47:21;94682.00;;;20.38;100.00
6134;BME280;3098;42.678;23.364;2023-06-14T04:49:51;94684.34;;;20.39;100.00
6134;BME280;3098;42.678;23.364;2023-06-14T04:52:19;94656.09;;;19.72;100.00
6134;BME280;3098;42.678;23.364;2023-06-14T04:54:46;94684.22;;;19.78;100.00
6134;BME280;3098;42.678;23.364;2023-06-14T04:57:14;94693.06;;;19.41;100.00
6134;BME280;3098;42.678;23.364;2023-06-14T04:59:42;94693.66;;;19.61;100.00
6134;BME280;3098;42.678;23.364;2023-06-14T05:02:09;94692.84;;;19.97;100.00
6134;BME280;3098;42.678;23.364;2023-06-14T05:04:37;94702.88;;;20.00;100.00
6134;BME280;3098;42.678;23.364;2023-06-14T05:07:07;94703.56;;;20.38;100.00
6134;BME280;3098;42.678;23.364;2023-06-14T05:09:34;94680.50;;;19.19;100.00
6134;BME280;3098;42.678;23.364;2023-06-14T05:12:01;94700.09;;;19.49;100.00
6134;BME280;3098;42.678;23.364;2023-06-14T05:14:28;94706.44;;;20.15;100.00
6134;BME280;3098;42.678;23.364;2023-06-14T05:16:54;94711.81;;;20.15;100.00
6134;BME280;3098;42.678;23.364;2023-06-14T05:19:22;94701.22;;;19.19;100.00
6134;BME280;3098;42.678;23.364;2023-06-14T05:21:49;94620.69;;;18.96;100.00
6134;BME280;3098;42.678;23.364;2023-06-14T05:24:18;94712.59;;;20.12;100.00
6134;BME280;3098;42.678;23.364;2023-06-14T05:26:45;94714.31;;;19.90;100.00
6134;BME280;3098;42.678;23.364;2023-06-14T05:29:12;94686.66;;;20.37;100.00
6134;BME280;3098;42.678;23.364;2023-06-14T05:31:39;94716.44;;;20.62;100.00
6134;BME280;3098;42.678;23.364;2023-06-14T05:34:06;94680.28;;;20.12;100.00
6134;BME280;3098;42.678;23.364;2023-06-14T05:36:33;94662.84;;;19.99;100.00
6134;BME280;3098;42.678;23.364;2023-06-14T05:39:02;94726.84;;;20.60;100.00
6134;BME280;3098;42.678;23.364;2023-06-14T05:41:32;94700.22;;;20.51;100.00
6134;BME280;3098;42.678;23.364;2023-06-14T05:43:59;94720.28;;;20.61;100.00
6134;BME280;3098;42.678;23.364;2023-06-14T05:46:26;94712.22;;;20.64;100.00
6134;BME280;3098;42.678;23.364;2023-06-14T05:48:54;94729.97;;;20.73;100.00
6134;BME280;3098;42.678;23.364;2023-06-14T05:51:22;94727.00;;;20.30;100.00
6134;BME280;3098;42.678;23.364;2023-06-14T05:53:50;94724.28;;;19.86;100.00
6134;BME280;3098;42.678;23.364;2023-06-14T05:56:17;94729.09;;;19.70;100.00
6134;BME280;3098;42.678;23.364;2023-06-14T05:58:46;94733.94;;;19.54;100.00
6134;BME280;3098;42.678;23.364;2023-06-14T06:01:13;94723.28;;;19.31;100.00
6134;BME280;3098;42.678;23.364;2023-06-14T06:03:41;94733.69;;;19.70;100.00
6134;BME280;3098;42.678;23.364;2023-06-14T06:06:11;94701.31;;;19.26;100.00
6134;BME280;3098;42.678;23.364;2023-06-14T06:08:38;94725.28;;;19.08;100.00
6134;BME280;3098;42.678;23.364;2023-06-14T06:11:05;94739.09;;;19.70;100.00
6134;BME280;3098;42.678;23.364;2023-06-14T06:13:32;94695.25;;;19.66;100.00
6134;BME280;3098;42.678;23.364;2023-06-14T06:16:00;94735.91;;;19.57;100.00
6134;BME280;3098;42.678;23.364;2023-06-14T06:18:27;94717.78;;;19.21;100.00
6134;BME280;3098;42.678;23.364;2023-06-14T06:20:54;94743.88;;;19.50;100.00
6134;BME280;3098;42.678;23.364;2023-06-14T06:23:21;94745.69;;;20.63;100.00
6134;BME280;3098;42.678;23.364;2023-06-14T06:25:48;94734.47;;;20.51;100.00
6134;BME280;3098;42.678;23.364;2023-06-14T06:28:14;94753.50;;;20.25;100.00
6134;BME280;3098;42.678;23.364;2023-06-14T06:30:42;94749.03;;;20.02;100.00
6134;BME280;3098;42.678;23.364;2023-06-14T06:33:10;94751.53;;;19.48;100.00
6134;BME280;3098;42.678;23.364;2023-06-14T06:35:37;94751.94;;;19.83;100.00
6134;BME280;3098;42.678;23.364;2023-06-14T06:38:04;94741.69;;;19.99;100.00
6134;BME280;3098;42.678;23.364;2023-06-14T06:40:31;94692.09;;;20.00;100.00
6134;BME280;3098;42.678;23.364;2023-06-14T06:42:58;94753.22;;;19.60;100.00
6134;BME280;3098;42.678;23.364;2023-06-14T06:45:25;94726.75;;;19.02;100.00
6134;BME280;3098;42.678;23.364;2023-06-14T06:47:52;94755.34;;;18.87;100.00
6134;BME280;3098;42.678;23.364;2023-06-14T06:50:22;94734.28;;;18.63;100.00
6134;BME280;3098;42.678;23.364;2023-06-14T06:52:50;94763.72;;;18.82;100.00
6134;BME280;3098;42.678;23.364;2023-06-14T06:55:18;94713.66;;;18.67;100.00
6134;BME280;3098;42.678;23.364;2023-06-14T06:57:45;94695.88;;;18.89;100.00
6134;BME280;3098;42.678;23.364;2023-06-14T07:00:12;94731.59;;;19.49;100.00
6134;BME280;3098;42.678;23.364;2023-06-14T07:02:39;94745.22;;;20.03;100.00
6134;BME280;3098;42.678;23.364;2023-06-14T07:05:06;94745.19;;;19.63;100.00
6134;BME280;3098;42.678;23.364;2023-06-14T07:07:35;94722.16;;;19.32;100.00
6134;BME280;3098;42.678;23.364;2023-06-14T07:10:02;94740.97;;;19.66;100.00
6134;BME280;3098;42.678;23.364;2023-06-14T07:12:29;94759.56;;;19.78;100.00
6134;BME280;3098;42.678;23.364;2023-06-14T07:14:57;94761.13;;;20.19;100.00
6134;BME280;3098;42.678;23.364;2023-06-14T07:17:24;94757.25;;;20.64;100.00
6134;BME280;3098;42.678;23.364;2023-06-14T07:19:50;94753.75;;;21.18;100.00
6134;BME280;3098;42.678;23.364;2023-06-14T07:22:18;94752.00;;;21.54;100.00
6134;BME280;3098;42.678;23.364;2023-06-14T07:24:47;94707.78;;;22.32;100.00
6134;BME280;3098;42.678;23.364;2023-06-14T07:27:14;94733.63;;;22.79;98.59
6134;BME280;3098;42.678;23.364;2023-06-14T07:29:41;94729.38;;;22.89;94.52
6134;BME280;3098;42.678;23.364;2023-06-14T07:32:08;94706.78;;;24.14;87.95
6134;BME280;3098;42.678;23.364;2023-06-14T07:34:35;94748.66;;;26.30;75.49
6134;BME280;3098;42.678;23.364;2023-06-14T07:37:02;94651.31;;;26.45;68.04
6134;BME280;3098;42.678;23.364;2023-06-14T07:39:29;94666.66;;;25.82;66.32
6134;BME280;3098;42.678;23.364;2023-06-14T07:41:58;94706.28;;;26.56;63.39
6134;BME280;3098;42.678;23.364;2023-06-14T07:44:27;94725.31;;;26.33;66.17
6134;BME280;3098;42.678;23.364;2023-06-14T07:46:54;94740.78;;;25.82;64.48
6134;BME280;3098;42.678;23.364;2023-06-14T07:49:23;94704.59;;;26.15;67.08
6134;BME280;3098;42.678;23.364;2023-06-14T07:51:50;94750.56;;;26.33;63.83
6134;BME280;3098;42.678;23.364;2023-06-14T07:54:17;94749.50;;;28.34;56.91
6134;BME280;3098;42.678;23.364;2023-06-14T07:56:44;94713.69;;;27.96;55.82
6134;BME280;3098;42.678;23.364;2023-06-14T07:59:12;94753.75;;;26.51;61.70
6134;BME280;3098;42.678;23.364;2023-06-14T08:01:39;94738.66;;;22.84;80.03
6134;BME280;3098;42.678;23.364;2023-06-14T08:04:12;94695.00;;;22.86;82.31
6134;BME280;3098;42.678;23.364;2023-06-14T08:06:39;94751.03;;;24.52;72.08
6134;BME280;3098;42.678;23.364;2023-06-14T08:09:09;94744.75;;;24.11;73.07
6134;BME280;3098;42.678;23.364;2023-06-14T08:11:37;94766.41;;;24.14;77.15
6134;BME280;3098;42.678;23.364;2023-06-14T08:14:04;94697.28;;;22.95;79.86
6134;BME280;3098;42.678;23.364;2023-06-14T08:16:32;94757.53;;;23.02;83.38
6134;BME280;3098;42.678;23.364;2023-06-14T08:18:59;94747.22;;;23.80;80.07
6134;BME280;3098;42.678;23.364;2023-06-14T08:21:26;94753.53;;;23.56;78.68
6134;BME280;3098;42.678;23.364;2023-06-14T08:23:54;94710.47;;;22.57;83.76
6134;BME280;3098;42.678;23.364;2023-06-14T08:26:21;94780.22;;;23.58;83.61
6134;BME280;3098;42.678;23.364;2023-06-14T08:28:49;94734.00;;;23.93;76.44
6134;BME280;3098;42.678;23.364;2023-06-14T08:31:16;94747.88;;;25.01;71.61
6134;BME280;3098;42.678;23.364;2023-06-14T08:33:44;94753.88;;;25.91;64.15
6134;BME280;3098;42.678;23.364;2023-06-14T08:36:11;94776.97;;;25.38;63.01
6134;BME280;3098;42.678;23.364;2023-06-14T08:38:38;94757.91;;;25.79;63.16
6134;BME280;3098;42.678;23.364;2023-06-14T08:41:05;94777.03;;;27.02;59.31
6134;BME280;3098;42.678;23.364;2023-06-14T08:43:33;94753.91;;;26.67;56.94
6134;BME280;3098;42.678;23.364;2023-06-14T08:46:02;94778.44;;;25.46;61.31
6134;BME280;3098;42.678;23.364;2023-06-14T08:48:30;94703.81;;;23.08;72.32
6134;BME280;3098;42.678;23.364;2023-06-14T08:51:01;94712.25;;;23.38;76.78
6134;BME280;3098;42.678;23.364;2023-06-14T08:53:30;94766.59;;;24.92;70.40
6134;BME280;3098;42.678;23.364;2023-06-14T08:55:59;94716.28;;;26.62;60.06
6134;BME280;3098;42.678;23.364;2023-06-14T08:58:28;94764.16;;;25.39;62.96
6134;BME280;3098;42.678;23.364;2023-06-14T09:00:57;94753.97;;;25.50;62.66
6134;BME280;3098;42.678;23.364;2023-06-14T09:03:24;94763.56;;;25.24;64.62
6134;BME280;3098;42.678;23.364;2023-06-14T09:05:56;94762.72;;;24.42;68.25
6134;BME280;3098;42.678;23.364;2023-06-14T09:08:26;94735.00;;;24.72;69.43
6134;BME280;3098;42.678;23.364;2023-06-14T09:10:56;94758.34;;;24.55;69.82
6134;BME280;3098;42.678;23.364;2023-06-14T09:13:24;94754.59;;;23.73;74.66
6134;BME280;3098;42.678;23.364;2023-06-14T09:15:51;94756.81;;;24.57;72.22
6134;BME280;3098;42.678;23.364;2023-06-14T09:18:18;94681.28;;;24.12;69.00
6134;BME280;3098;42.678;23.364;2023-06-14T09:20:46;94733.91;;;24.11;69.49
6134;BME280;3098;42.678;23.364;2023-06-14T09:23:13;94750.16;;;24.11;69.23
6134;BME280;3098;42.678;23.364;2023-06-14T09:25:48;94712.22;;;24.07;68.40
6134;BME280;3098;42.678;23.364;2023-06-14T09:28:15;94733.91;;;24.62;65.33
6134;BME280;3098;42.678;23.364;2023-06-14T09:30:42;94739.56;;;25.19;63.56
6134;BME280;3098;42.678;23.364;2023-06-14T09:33:08;94747.31;;;25.54;62.46
6134;BME280;3098;42.678;23.364;2023-06-14T09:35:36;94737.41;;;25.37;59.99
6134;BME280;3098;42.678;23.364;2023-06-14T09:38:03;94749.81;;;24.60;62.83
6134;BME280;3098;42.678;23.364;2023-06-14T09:40:34;94748.34;;;24.96;62.44
6134;BME280;3098;42.678;23.364;2023-06-14T09:43:06;94724.03;;;24.86;61.84
6134;BME280;3098;42.678;23.364;2023-06-14T09:45:35;94742.22;;;25.60;62.91
6134;BME280;3098;42.678;23.364;2023-06-14T09:48:02;94735.41;;;26.32;57.95
6134;BME280;3098;42.678;23.364;2023-06-14T09:50:30;94724.59;;;26.78;54.71
6134;BME280;3098;42.678;23.364;2023-06-14T09:53:01;94720.06;;;27.54;54.07
6134;BME280;3098;42.678;23.364;2023-06-14T09:55:30;94740.84;;;27.25;54.01
6134;BME280;3098;42.678;23.364;2023-06-14T09:57:59;94738.53;;;27.23;52.42
6134;BME280;3098;42.678;23.364;2023-06-14T10:00:28;94683.38;;;27.19;53.95
6134;BME280;3098;42.678;23.364;2023-06-14T10:03:00;94726.41;;;26.62;54.82
6134;BME280;3098;42.678;23.364;2023-06-14T10:05:30;94684.28;;;27.32;52.00
6134;BME280;3098;42.678;23.364;2023-06-14T10:08:00;94657.69;;;28.12;49.39
6134;BME280;3098;42.678;23.364;2023-06-14T10:10:31;94720.84;;;27.90;50.01
6134;BME280;3098;42.678;23.364;2023-06-14T10:12:58;94716.16;;;26.69;52.11
6134;BME280;3098;42.678;23.364;2023-06-14T10:15:30;94675.31;;;25.43;55.07
6134;BME280;3098;42.678;23.364;2023-06-14T10:18:04;94715.31;;;26.26;53.64
6134;BME280;3098;42.678;23.364;2023-06-14T10:20:39;94658.59;;;26.28;53.19
6134;BME280;3098;42.678;23.364;2023-06-14T10:23:11;94695.94;;;28.08;50.72
6134;BME280;3098;42.678;23.364;2023-06-14T10:25:42;94691.28;;;29.72;46.73
6134;BME280;3098;42.678;23.364;2023-06-14T10:28:16;94700.06;;;31.37;43.07
6134;BME280;3098;42.678;23.364;2023-06-14T10:31:05;94702.88;;;31.46;41.04
6134;BME280;3098;42.678;23.364;2023-06-14T10:33:32;94682.56;;;29.23;43.74
6134;BME280;3098;42.678;23.364;2023-06-14T10:36:10;94704.72;;;27.44;47.56
6134;BME280;3098;42.678;23.364;2023-06-14T10:38:37;94685.81;;;25.98;51.75
6134;BME280;3098;42.678;23.364;2023-06-14T10:41:05;94699.66;;;25.50;54.81
6134;BME280;3098;42.678;23.364;2023-06-14T10:43:33;94681.00;;;25.52;56.44
6134;BME280;3098;42.678;23.364;2023-06-14T10:46:18;94671.78;;;25.76;55.12
6134;BME280;3098;42.678;23.364;2023-06-14T10:48:48;94673.84;;;26.22;53.97
6134;BME280;3098;42.678;23.364;2023-06-14T10:51:17;94625.28;;;25.70;54.42
6134;BME280;3098;42.678;23.364;2023-06-14T10:53:46;94619.16;;;27.02;52.04
6134;BME280;3098;42.678;23.364;2023-06-14T10:56:26;94631.91;;;27.25;50.05
6134;BME280;3098;42.678;23.364;2023-06-14T10:58:53;94669.81;;;26.53;51.79
6134;BME280;3098;42.678;23.364;2023-06-14T11:01:35;94672.06;;;25.55;54.08
6134;BME280;3098;42.678;23.364;2023-06-14T11:04:07;94668.84;;;25.90;54.32
6134;BME280;3098;42.678;23.364;2023-06-14T11:06:49;94667.19;;;26.93;51.74
6134;BME280;3098;42.678;23.364;2023-06-14T11:09:47;94668.72;;;27.13;49.58
6134;BME280;3098;42.678;23.364;2023-06-14T11:12:20;94662.09;;;27.14;50.21
6134;BME280;3098;42.678;23.364;2023-06-14T11:14:49;94666.66;;;28.28;47.59
6134;BME280;3098;42.678;23.364;2023-06-14T11:17:17;94629.97;;;28.90;45.62
6134;BME280;3098;42.678;23.364;2023-06-14T11:19:44;94620.06;;;27.71;46.58
6134;BME280;3098;42.678;23.364;2023-06-14T11:22:12;94640.59;;;27.20;48.84
6134;BME280;3098;42.678;23.364;2023-06-14T11:24:40;94657.25;;;27.22;48.07
6134;BME280;3098;42.678;23.364;2023-06-14T11:27:06;94584.81;;;26.89;48.75
6134;BME280;3098;42.678;23.364;2023-06-14T11:29:34;94643.78;;;28.38;45.89
6134;BME280;3098;42.678;23.364;2023-06-14T11:32:00;94658.84;;;28.59;45.60
6134;BME280;3098;42.678;23.364;2023-06-14T11:34:29;94662.97;;;28.96;44.32
6134;BME280;3098;42.678;23.364;2023-06-14T11:36:56;94632.13;;;27.54;47.53
6134;BME280;3098;42.678;23.364;2023-06-14T11:39:24;94655.44;;;27.55;48.25
6134;BME280;3098;42.678;23.364;2023-06-14T11:41:52;94589.34;;;26.09;52.06
6134;BME280;3098;42.678;23.364;2023-06-14T11:44:20;94642.34;;;27.10;49.30
6134;BME280;3098;42.678;23.364;2023-06-14T11:46:47;94639.41;;;27.21;49.88
6134;BME280;3098;42.678;23.364;2023-06-14T11:49:16;94611.25;;;26.45;50.20
6134;BME280;3098;42.678;23.364;2023-06-14T11:51:44;94563.78;;;26.50;50.18
6134;BME280;3098;42.678;23.364;2023-06-14T11:54:11;94615.69;;;27.02;49.86
6134;BME280;3098;42.678;23.364;2023-06-14T11:56:38;94625.09;;;27.17;49.52
6134;BME280;3098;42.678;23.364;2023-06-14T11:59:05;94622.91;;;25.99;51.37
6134;BME280;3098;42.678;23.364;2023-06-14T12:01:36;94592.03;;;25.06;53.18
6134;BME280;3098;42.678;23.364;2023-06-14T12:04:03;94616.13;;;26.11;53.69
6134;BME280;3098;42.678;23.364;2023-06-14T12:06:31;94605.38;;;26.70;52.03
6134;BME280;3098;42.678;23.364;2023-06-14T12:09:06;94568.97;;;26.21;50.71
6134;BME280;3098;42.678;23.364;2023-06-14T12:11:38;94581.34;;;26.45;51.01
6134;BME280;3098;42.678;23.364;2023-06-14T12:14:06;94548.94;;;25.35;53.29
6134;BME280;3098;42.678;23.364;2023-06-14T12:16:34;94601.09;;;25.23;54.65
6134;BME280;3098;42.678;23.364;2023-06-14T12:19:08;94593.94;;;25.36;54.87
6134;BME280;3098;42.678;23.364;2023-06-14T12:21:37;94507.94;;;25.29;53.01
6134;BME280;3098;42.678;23.364;2023-06-14T12:24:07;94596.03;;;26.05;53.13
6134;BME280;3098;42.678;23.364;2023-06-14T12:26:38;94599.97;;;26.00;52.32
6134;BME280;3098;42.678;23.364;2023-06-14T12:29:05;94589.19;;;25.97;51.89
6134;BME280;3098;42.678;23.364;2023-06-14T12:31:33;94578.66;;;25.49;53.00
6134;BME280;3098;42.678;23.364;2023-06-14T12:34:00;94584.75;;;25.56;52.98
6134;BME280;3098;42.678;23.364;2023-06-14T12:36:27;94564.03;;;25.09;54.50
6134;BME280;3098;42.678;23.364;2023-06-14T12:38:54;94564.31;;;25.18;53.38
6134;BME280;3098;42.678;23.364;2023-06-14T12:41:23;94526.00;;;25.12;52.70
6134;BME280;3098;42.678;23.364;2023-06-14T12:43:50;94564.41;;;25.68;51.69
6134;BME280;3098;42.678;23.364;2023-06-14T12:46:17;94501.88;;;25.45;52.18
6134;BME280;3098;42.678;23.364;2023-06-14T12:48:44;94575.22;;;25.95;53.31
6134;BME280;3098;42.678;23.364;2023-06-14T12:51:10;94544.19;;;24.89;54.70
6134;BME280;3098;42.678;23.364;2023-06-14T12:53:37;94558.59;;;25.39;54.34
6134;BME280;3098;42.678;23.364;2023-06-14T12:56:05;94536.91;;;24.79;54.88
6134;BME280;3098;42.678;23.364;2023-06-14T12:58:33;94571.31;;;24.89;55.16
6134;BME280;3098;42.678;23.364;2023-06-14T13:01:00;94564.34;;;25.14;54.37
6134;BME280;3098;42.678;23.364;2023-06-14T13:03:27;94566.16;;;25.25;52.98
6134;BME280;3098;42.678;23.364;2023-06-14T13:05:54;94566.84;;;25.32;52.62
6134;BME280;3098;42.678;23.364;2023-06-14T13:08:21;94570.81;;;24.97;53.02
6134;BME280;3098;42.678;23.364;2023-06-14T13:10:49;94560.31;;;24.99;52.25